Mona, Utah
Current Conditions -  °F | °C
As of 6:35 AM on Tuesday 21 Oct 2014 (Local Time) from KPVU Reporting Station
Few Clouds Few Clouds  
Wind Chill: 57°   Ceiling: Unl
Heat Index: 57°   Visibility: 10mi
Dew Point: 41°   Wind: 8mph
Humidity: 55%   Direction: 160°SSE
Pressure: 29.94"   Gusts: NA
Location:  39.82°N, 111.86°W
Report Text: KPVU 211235Z AUTO 16007KT 10SM FEW090 14/05 A2994 RMK AO1
Loading
Personal Weather Stations






























Interactive Weather Map
Tropical Storm Tracking
New forecast layout! Learn more

10-Day Weather Forecast

Advertisements
Track Severe Weather on mobile